Hlavní strana
METAR-TAF:

METAR-TAF

Letiště :

Bardufoss, Norsko

zeměpisná šířka: 69-04N, zeměpisná délka: 018-32E, výška: 7 m

Aktuální stav počasí

Zpráva byla vytvořena před 14 minutami, v 14:50 UTC
Jihojihozápadní vítr 9 kt, proměnlivý mezi jihojihovýchodním a jihozápadním
Teplota 7°C
Vlhkost vzduchu 76%
Tlak 1027 hPa
Viditelnost 10 km a více
slabý déšť

METAR: ENDU 191450Z AUTO 20009KT 160V230 9999 -RA SCT041/// OVC057/// 07/03 Q1027 RMK WIND 1100FT 20021KT WIND 2200FT 22022KT

Čas: 17:04 (15:04 UTC)

Předpověď počasí

Předpověď platná od 19 v 12 UTC do 20 v 12 UTC
Jihozápadní vítr 8 kt
Viditelnost 10 km a více
Skoro jasno ve výšce 1000 ft
Oblačno až skoro zataženo ve výšce 3000 ft
slabý déšť
Dočasný
od 19 v 12 UTC do 19 v 18 UTC
Oblačno až skoro zataženo ve výšce 1400 ft

TAF: ENDU 1912/2012 22008KT 9999 -RA FEW010 BKN030 TEMPO 1912/1918 BKN014

Stav a předpovědi počasí z více než 4 000 letišť (zprávy METAR a TAF).

Červené a žluté tečky na mapě představují dostupné meteorologické stanice.

Když kurzor umístíte na tečku, zobrazí se název stanice.

Pak kliknutím zobrazíte stav a předpověď počasí.

Chcete-li změnit mapu, kliknutím na zelené tlačítko se znaménkem +mapu přiblížíte, kliknutím na zelené tlačítko se znaménkem – mapu oddálíte a kliknutím na zelené šipky přejdete na sousední mapy.


METAR-TAF: